Time;durP1;ratioP1;P1;durP2;ratioP2;P2;SDS_P1;SDS_P2;PMS_P1;PMS_P2;Temp;Humidity;BMP_temperature;BMP_pressure;BME280_temperature;BME280_humidity;BME280_pressure;Samples;Min_cycle;Max_cycle;Signal;HPM_P1;HPM_P2
2022/12/21 00:02:06;;;;;;;66.97;27.00;;;9.00;99.90;;;;;;5078157;28;20048;-90
2022/12/21 00:04:31;;;;;;;66.83;29.07;;;9.00;99.90;;;;;;5076329;28;20478;-87
2022/12/21 00:06:57;;;;;;;58.87;27.00;;;9.00;99.90;;;;;;5063027;28;20048;-89
2022/12/21 00:09:23;;;;;;;62.00;26.40;;;8.90;99.90;;;;;;5073853;28;20128;-91
2022/12/21 00:11:49;;;;;;;78.50;29.00;;;8.90;99.90;;;;;;5069221;28;20056;-89
2022/12/21 00:14:15;;;;;;;58.00;25.13;;;8.90;99.90;;;;;;5078390;28;20518;-88
2022/12/21 00:16:41;;;;;;;58.73;25.77;;;8.80;99.90;;;;;;5074791;28;20076;-90
2022/12/21 00:19:07;;;;;;;62.10;26.13;;;8.90;99.90;;;;;;5066642;28;20063;-90
2022/12/21 00:21:36;;;;;;;64.27;25.90;;;8.80;99.90;;;;;;5077692;28;20063;-90
2022/12/21 00:24:03;;;;;;;68.30;26.40;;;8.80;99.90;;;;;;5076773;28;20052;-89
2022/12/21 00:26:31;;;;;;;58.30;23.47;;;8.80;99.90;;;;;;5075849;28;20048;-89
2022/12/21 00:28:58;;;;;;;59.40;23.60;;;8.70;99.90;;;;;;5077515;28;20122;-87
2022/12/21 00:31:29;;;;;;;60.73;24.23;;;8.70;99.90;;;;;;5076044;28;20048;-88
2022/12/21 00:33:56;;;;;;;52.67;22.77;;;8.70;99.90;;;;;;5076672;28;20040;-89
2022/12/21 00:36:24;;;;;;;59.87;24.40;;;8.60;99.90;;;;;;5077733;28;20122;-86
2022/12/21 00:38:50;;;;;;;58.87;23.37;;;8.60;99.90;;;;;;5073934;28;20045;-90
2022/12/21 00:41:21;;;;;;;54.13;22.73;;;8.60;99.90;;;;;;5076715;28;20690;-88
2022/12/21 00:43:48;;;;;;;59.10;23.30;;;8.60;99.90;;;;;;5075082;28;20052;-88
2022/12/21 00:46:23;;;;;;;58.27;23.40;;;8.60;99.90;;;;;;5071480;28;20131;-91
2022/12/21 00:48:50;;;;;;;59.70;24.27;;;8.50;99.90;;;;;;5072557;28;20044;-90
2022/12/21 00:51:21;;;;;;;56.67;25.73;;;8.60;99.90;;;;;;5074121;28;20094;-89
2022/12/21 00:53:48;;;;;;;63.67;26.10;;;8.50;99.90;;;;;;5075636;28;20060;-88
2022/12/21 00:56:14;;;;;;;49.00;21.80;;;8.50;99.90;;;;;;5064806;28;20044;-90
2022/12/21 00:58:40;;;;;;;64.90;25.77;;;8.50;99.90;;;;;;5074950;28;20056;-90
2022/12/21 01:01:13;;;;;;;72.40;28.53;;;8.40;99.90;;;;;;5077084;28;20051;-89
2022/12/21 01:03:39;;;;;;;59.50;25.33;;;8.50;99.90;;;;;;5074979;28;20049;-90
2022/12/21 01:06:05;;;;;;;62.37;24.90;;;8.40;99.90;;;;;;5076051;28;20604;-89
2022/12/21 01:08:31;;;;;;;60.70;23.87;;;8.40;99.90;;;;;;5074773;28;20108;-88
2022/12/21 01:11:01;;;;;;;66.30;26.80;;;8.40;99.90;;;;;;5076368;28;20582;-90
2022/12/21 01:13:29;;;;;;;59.63;25.43;;;8.40;99.90;;;;;;5075933;28;20052;-89
2022/12/21 01:15:54;;;;;;;70.30;27.60;;;8.40;99.90;;;;;;5075870;28;20131;-87
2022/12/21 01:18:21;;;;;;;65.03;25.60;;;8.40;99.90;;;;;;5071889;28;20080;-86
2022/12/21 01:20:54;;;;;;;66.27;25.50;;;8.40;99.90;;;;;;5054144;28;20048;-89
2022/12/21 01:23:20;;;;;;;68.83;25.77;;;8.40;99.90;;;;;;5066608;28;20091;-89
2022/12/21 01:25:47;;;;;;;76.40;27.70;;;8.40;99.90;;;;;;5071460;28;20529;-89
2022/12/21 01:28:14;;;;;;;70.13;25.43;;;8.30;99.90;;;;;;5070282;28;20044;-88
2022/12/21 01:30:40;;;;;;;87.43;28.10;;;8.30;99.90;;;;;;5074866;28;20040;-88
2022/12/21 01:33:08;;;;;;;66.53;24.83;;;8.30;99.90;;;;;;5075451;28;20036;-89
2022/12/21 01:35:39;;;;;;;55.20;21.83;;;8.30;99.90;;;;;;5076287;28;20047;-89
2022/12/21 01:38:05;;;;;;;53.63;21.67;;;8.40;99.90;;;;;;5075080;28;20033;-89
2022/12/21 01:40:31;;;;;;;58.40;23.83;;;8.30;99.90;;;;;;5072799;28;20053;-88
2022/12/21 01:42:58;;;;;;;61.97;23.47;;;8.30;99.90;;;;;;5075065;28;20144;-89
2022/12/21 01:45:32;;;;;;;67.47;24.07;;;8.30;99.90;;;;;;5075222;28;20104;-89
2022/12/21 01:48:00;;;;;;;58.03;20.83;;;8.30;99.90;;;;;;5074919;28;20040;-90
2022/12/21 01:50:56;;;;;;;58.07;21.03;;;8.20;99.90;;;;;;5062740;28;20051;-88
2022/12/21 01:53:36;;;;;;;53.73;20.03;;;8.20;99.90;;;;;;5066899;28;20060;-89
2022/12/21 01:56:06;;;;;;;54.17;19.60;;;8.20;99.90;;;;;;5064713;28;20574;-88
2022/12/21 01:58:33;;;;;;;65.20;22.13;;;8.10;99.90;;;;;;5074980;28;20106;-88
2022/12/21 02:01:00;;;;;;;55.43;19.13;;;8.10;99.90;;;;;;5076388;28;20503;-89
2022/12/21 02:03:37;;;;;;;72.57;22.57;;;8.00;99.90;;;;;;5063709;28;20064;-90
2022/12/21 02:06:02;;;;;;;54.97;19.43;;;8.00;99.90;;;;;;5074017;28;20033;-90
2022/12/21 02:08:28;;;;;;;59.07;20.17;;;8.00;99.90;;;;;;5074315;28;20285;-88
2022/12/21 02:10:56;;;;;;;65.90;21.50;;;8.00;99.90;;;;;;5076351;28;20033;-88
2022/12/21 02:13:22;;;;;;;68.67;20.03;;;8.00;99.90;;;;;;5056990;28;20059;-88
2022/12/21 02:16:00;;;;;;;62.80;19.80;;;8.00;99.90;;;;;;5074703;28;20057;-88
2022/12/21 02:18:25;;;;;;;59.43;18.67;;;8.00;99.90;;;;;;5065838;28;20068;-87
2022/12/21 02:21:18;;;;;;;62.70;19.43;;;7.90;99.90;;;;;;5073570;28;20106;-87
2022/12/21 02:23:58;;;;;;;68.85;22.08;;;7.90;99.90;;;;;;5068668;28;20044;-88
2022/12/21 02:27:01;;;;;;;60.43;20.07;;;7.90;99.90;;;;;;5063796;28;20078;-88
2022/12/21 02:30:02;;;;;;;68.13;21.93;;;7.90;99.90;;;;;;5073467;28;20515;-87
2022/12/21 02:32:33;;;;;;;66.43;21.33;;;7.90;99.90;;;;;;5073033;28;20100;-87
2022/12/21 02:35:20;;;;;;;60.23;21.33;;;7.80;99.90;;;;;;5075550;28;20045;-88
2022/12/21 02:37:57;;;;;;;57.13;20.00;;;7.80;99.90;;;;;;5061922;28;20287;-88
2022/12/21 02:40:54;;;;;;;68.03;20.83;;;7.80;99.90;;;;;;5078335;28;20060;-90
2022/12/21 02:47:11;;;;;;;100.37;24.87;;;7.80;99.90;;;;;;5060851;28;20091;-91
2022/12/21 02:49:50;;;;;;;89.30;22.37;;;7.70;99.90;;;;;;5078855;28;20204;-89
2022/12/21 02:52:27;;;;;;;61.37;18.67;;;7.70;99.90;;;;;;5077047;28;20066;-86
2022/12/21 02:55:00;;;;;;;126.57;27.93;;;7.70;99.90;;;;;;5077972;28;20054;-88
2022/12/21 02:57:41;;;;;;;72.03;20.07;;;7.70;99.90;;;;;;5080057;28;20483;-87
2022/12/21 03:00:15;;;;;;;149.03;27.93;;;7.70;99.90;;;;;;5078015;28;20425;-89
2022/12/21 03:06:05;;;;;;;78.13;23.23;;;7.70;99.90;;;;;;5078570;28;20048;-88
2022/12/21 03:08:53;;;;;;;87.87;23.07;;;7.70;99.90;;;;;;5077796;28;20126;-89
2022/12/21 03:11:19;;;;;;;104.47;24.90;;;7.70;99.90;;;;;;5062355;28;20048;-88
2022/12/21 03:14:03;;;;;;;133.43;27.33;;;7.70;99.90;;;;;;5078687;28;20138;-87
2022/12/21 03:16:55;;;;;;;98.23;22.93;;;7.70;99.90;;;;;;5071409;28;20039;-87
2022/12/21 03:19:36;;;;;;;172.10;30.83;;;7.80;99.90;;;;;;5071224;28;20059;-88
2022/12/21 03:22:14;;;;;;;112.43;22.37;;;7.70;99.90;;;;;;5078008;28;20058;-89
2022/12/21 03:24:44;;;;;;;92.80;22.93;;;7.70;99.90;;;;;;5072115;28;20092;-88
2022/12/21 03:27:21;;;;;;;192.77;28.87;;;7.70;99.90;;;;;;5077652;28;20045;-89
2022/12/21 03:30:09;;;;;;;144.83;24.07;;;7.70;99.90;;;;;;5076994;28;20052;-89
2022/12/21 03:32:48;;;;;;;178.37;26.50;;;7.70;99.90;;;;;;5071050;28;20052;-88
2022/12/21 03:35:23;;;;;;;198.50;27.20;;;7.70;99.90;;;;;;5078453;28;20044;-86
2022/12/21 03:37:50;;;;;;;102.07;20.10;;;7.70;99.90;;;;;;5078238;28;20056;-90
2022/12/21 03:40:25;;;;;;;75.53;16.57;;;7.70;99.90;;;;;;5078954;28;20101;-86
2022/12/21 03:43:17;;;;;;;235.73;30.43;;;7.70;99.90;;;;;;5075274;28;20127;-88
2022/12/21 03:45:49;;;;;;;133.88;20.70;;;7.70;99.90;;;;;;5059665;28;20057;-89
2022/12/21 03:48:37;;;;;;;138.57;22.13;;;7.70;99.90;;;;;;5076994;28;20059;-88
2022/12/21 03:51:31;;;;;;;233.10;29.73;;;7.70;99.90;;;;;;5076946;28;20542;-88
2022/12/21 03:54:20;;;;;;;156.03;23.13;;;7.70;99.90;;;;;;5077450;28;20086;-88
2022/12/21 03:56:45;;;;;;;144.07;22.80;;;7.70;99.90;;;;;;5076121;28;20465;-86
2022/12/21 03:59:13;;;;;;;129.07;20.90;;;7.60;99.90;;;;;;5076492;28;20064;-87
2022/12/21 04:02:08;;;;;;;129.03;22.97;;;7.60;99.90;;;;;;5078470;28;20040;-89
2022/12/21 04:04:37;;;;;;;130.20;21.67;;;7.60;99.90;;;;;;5075228;28;20100;-88
2022/12/21 04:07:06;;;;;;;193.20;25.83;;;7.70;99.90;;;;;;5077333;28;20123;-88
2022/12/21 04:09:32;;;;;;;94.53;20.23;;;7.60;99.90;;;;;;5077987;28;20047;-89
2022/12/21 04:14:43;;;;;;;117.57;21.63;;;7.60;99.90;;;;;;5075796;28;20048;-89
2022/12/21 04:17:09;;;;;;;87.40;20.30;;;7.60;99.90;;;;;;5076517;28;20108;-88
2022/12/21 04:30:40;;;;;;;152.90;26.87;;;7.60;99.90;;;;;;5077498;28;20052;-88
2022/12/21 04:33:08;;;;;;;125.50;23.83;;;7.60;99.90;;;;;;5074464;28;20036;-89
2022/12/21 04:35:35;;;;;;;73.77;20.73;;;7.60;99.90;;;;;;5077429;28;20056;-87
2022/12/21 04:38:01;;;;;;;132.70;25.67;;;7.60;99.90;;;;;;5076709;28;20143;-89
2022/12/21 04:40:27;;;;;;;128.50;25.73;;;7.60;99.90;;;;;;5077102;28;20083;-90
2022/12/21 04:42:53;;;;;;;91.47;22.20;;;7.60;99.90;;;;;;5075096;28;20036;-89
2022/12/21 04:45:18;;;;;;;103.97;24.07;;;7.60;99.90;;;;;;5077500;28;20132;-90
2022/12/21 04:47:44;;;;;;;116.73;23.63;;;7.50;99.90;;;;;;5077225;28;20041;-89
2022/12/21 04:50:10;;;;;;;138.50;25.23;;;7.50;99.90;;;;;;5075681;28;20100;-81
2022/12/21 04:52:36;;;;;;;135.37;25.47;;;7.50;99.90;;;;;;5075284;28;20110;-82
2022/12/21 04:55:04;;;;;;;76.70;19.73;;;7.40;99.90;;;;;;5062951;28;20037;-81
2022/12/21 04:57:31;;;;;;;151.23;27.17;;;7.50;99.90;;;;;;5074569;28;20507;-81
2022/12/21 04:59:56;;;;;;;141.03;24.83;;;7.40;99.90;;;;;;5076911;28;20078;-82
2022/12/21 05:02:22;;;;;;;133.13;23.23;;;7.40;99.90;;;;;;5075729;28;20507;-80
2022/12/21 05:04:48;;;;;;;105.30;23.10;;;7.50;99.90;;;;;;5074875;28;20094;-81
2022/12/21 05:07:14;;;;;;;148.47;28.57;;;7.40;99.90;;;;;;5075156;28;20433;-81
2022/12/21 05:09:39;;;;;;;119.03;25.13;;;7.40;99.90;;;;;;5075552;28;20040;-81
2022/12/21 05:12:05;;;;;;;85.73;23.50;;;7.40;99.90;;;;;;5076260;28;20139;-81
2022/12/21 05:14:31;;;;;;;113.30;24.97;;;7.40;99.90;;;;;;5074882;28;20080;-81
2022/12/21 05:16:57;;;;;;;176.57;31.17;;;7.50;99.90;;;;;;5074882;28;20098;-81
2022/12/21 05:19:23;;;;;;;165.90;29.87;;;7.50;99.90;;;;;;5075279;28;20049;-82
2022/12/21 05:21:49;;;;;;;188.27;32.03;;;7.50;99.90;;;;;;5074898;28;20071;-81
2022/12/21 05:24:15;;;;;;;198.10;33.83;;;7.50;99.90;;;;;;5074900;28;20044;-82
2022/12/21 05:26:40;;;;;;;149.20;29.70;;;7.40;99.90;;;;;;5076696;28;20037;-78
2022/12/21 05:29:06;;;;;;;117.60;26.77;;;7.40;99.90;;;;;;5058071;28;20491;-81
2022/12/21 05:31:32;;;;;;;118.93;30.07;;;7.40;99.90;;;;;;5068421;28;20095;-81
2022/12/21 05:33:58;;;;;;;131.70;29.77;;;7.40;99.90;;;;;;5070071;28;20109;-81
2022/12/21 05:36:24;;;;;;;206.17;40.43;;;7.40;99.90;;;;;;5073679;28;20096;-81
2022/12/21 05:38:50;;;;;;;121.73;29.47;;;7.40;99.90;;;;;;5070829;28;20041;-81
2022/12/21 05:41:17;;;;;;;141.00;30.67;;;7.40;99.90;;;;;;5068791;28;20124;-81
2022/12/21 05:43:43;;;;;;;153.57;32.37;;;7.40;99.90;;;;;;5053403;28;20041;-81
2022/12/21 05:46:11;;;;;;;134.83;31.63;;;7.40;99.90;;;;;;5075080;28;20036;-81
2022/12/21 05:48:37;;;;;;;101.83;30.27;;;7.40;99.90;;;;;;5070859;28;20052;-82
2022/12/21 05:51:11;;;;;;;155.53;35.40;;;7.40;99.90;;;;;;5072787;28;20048;-81
2022/12/21 05:53:40;;;;;;;105.83;30.03;;;7.50;99.90;;;;;;5071172;28;20048;-81
2022/12/21 05:56:06;;;;;;;134.73;30.27;;;7.50;99.90;;;;;;5074341;28;20467;-82
2022/12/21 05:58:32;;;;;;;119.97;30.47;;;7.50;99.90;;;;;;5076043;28;20064;-81
2022/12/21 06:01:07;;;;;;;117.57;31.17;;;7.50;99.90;;;;;;5069540;28;20045;-82
2022/12/21 06:03:33;;;;;;;145.13;35.43;;;7.50;99.90;;;;;;5071651;28;20072;-82
2022/12/21 06:06:10;;;;;;;115.60;31.53;;;7.40;99.90;;;;;;5064730;28;20040;-82
2022/12/21 06:08:37;;;;;;;205.20;39.50;;;7.50;99.90;;;;;;5066017;28;20141;-82
2022/12/21 06:11:13;;;;;;;130.27;30.93;;;7.50;99.90;;;;;;5076032;28;20053;-82
2022/12/21 06:13:39;;;;;;;107.67;30.07;;;7.50;99.90;;;;;;5074219;28;20036;-82
2022/12/21 06:16:06;;;;;;;253.00;44.13;;;7.50;99.90;;;;;;5074478;28;20051;-82
2022/12/21 06:18:32;;;;;;;188.37;36.77;;;7.50;99.90;;;;;;5076344;28;20048;-82
2022/12/21 06:20:58;;;;;;;136.70;33.73;;;7.50;99.90;;;;;;5073386;28;20041;-81
2022/12/21 06:23:24;;;;;;;182.07;41.07;;;7.60;99.90;;;;;;5076738;28;20055;-82
2022/12/21 06:25:54;;;;;;;132.43;33.97;;;7.50;99.90;;;;;;5074789;28;20045;-82
2022/12/21 06:28:21;;;;;;;174.77;39.33;;;7.60;99.90;;;;;;5074696;28;20052;-82
2022/12/21 06:30:46;;;;;;;100.97;32.37;;;7.60;99.90;;;;;;5075654;28;20053;-81
2022/12/21 06:33:12;;;;;;;151.47;37.53;;;7.60;99.90;;;;;;5046070;28;20098;-81
2022/12/21 06:35:37;;;;;;;117.07;33.00;;;7.60;99.90;;;;;;5061590;28;20053;-81
2022/12/21 06:38:03;;;;;;;162.40;39.87;;;7.60;99.90;;;;;;5070550;28;20162;-81
2022/12/21 06:40:29;;;;;;;102.07;32.43;;;7.60;99.90;;;;;;5056020;28;20060;-82
2022/12/21 06:42:54;;;;;;;134.13;38.73;;;7.60;99.90;;;;;;5073807;28;20056;-81
2022/12/21 06:45:20;;;;;;;163.93;41.53;;;7.60;99.90;;;;;;5073564;28;20059;-82
2022/12/21 06:47:46;;;;;;;106.97;35.73;;;7.60;99.90;;;;;;5075579;28;20080;-81
2022/12/21 06:50:11;;;;;;;119.53;36.97;;;7.60;99.90;;;;;;5056489;28;20391;-81
2022/12/21 06:52:37;;;;;;;186.40;46.23;;;7.60;99.90;;;;;;5075420;28;20083;-81
2022/12/21 06:55:03;;;;;;;149.93;40.27;;;7.60;99.90;;;;;;5073486;28;20127;-82
2022/12/21 06:57:32;;;;;;;187.00;44.80;;;7.60;99.90;;;;;;5073951;28;20061;-81
2022/12/21 06:59:57;;;;;;;100.53;33.40;;;7.60;99.90;;;;;;5072975;28;20056;-81
2022/12/21 07:02:23;;;;;;;100.60;34.23;;;7.60;99.90;;;;;;5071957;28;20779;-81
2022/12/21 07:04:52;;;;;;;105.20;34.00;;;7.60;99.90;;;;;;5073650;28;20048;-81
2022/12/21 07:07:18;;;;;;;121.13;35.70;;;7.60;99.90;;;;;;5073833;28;20121;-81
2022/12/21 07:09:44;;;;;;;102.73;34.03;;;7.60;99.90;;;;;;5065162;28;20057;-80
2022/12/21 07:12:09;;;;;;;110.87;34.13;;;7.60;99.90;;;;;;5065574;28;20052;-80
2022/12/21 07:14:35;;;;;;;116.00;36.17;;;7.60;99.90;;;;;;5074167;28;20041;-81
2022/12/21 07:17:01;;;;;;;117.50;35.67;;;7.60;99.90;;;;;;5056603;28;20125;-81
2022/12/21 07:19:29;;;;;;;146.40;40.90;;;7.60;99.90;;;;;;5069420;28;20045;-81
2022/12/21 07:21:55;;;;;;;111.37;37.37;;;7.60;99.90;;;;;;5072924;28;20060;-81
2022/12/21 07:24:21;;;;;;;116.40;35.90;;;7.60;99.90;;;;;;5073451;28;20078;-81
2022/12/21 07:26:47;;;;;;;196.30;48.57;;;7.60;99.90;;;;;;5076566;28;20052;-79
2022/12/21 07:29:12;;;;;;;124.37;37.40;;;7.60;99.90;;;;;;5076666;28;20040;-82
2022/12/21 07:31:38;;;;;;;152.37;39.03;;;7.60;99.90;;;;;;5078281;28;20093;-82
2022/12/21 07:34:04;;;;;;;95.13;31.07;;;7.60;99.90;;;;;;5070998;28;20040;-85
2022/12/21 07:36:30;;;;;;;146.90;38.07;;;7.60;99.90;;;;;;5067906;28;20063;-85
2022/12/21 07:38:56;;;;;;;117.97;34.63;;;7.60;99.90;;;;;;5075894;28;20041;-90
2022/12/21 07:41:21;;;;;;;165.10;42.63;;;7.60;99.90;;;;;;5073583;28;20511;-88
2022/12/21 07:43:48;;;;;;;144.10;38.00;;;7.50;99.90;;;;;;5079051;28;20052;-87
2022/12/21 07:46:14;;;;;;;114.53;32.77;;;7.50;99.90;;;;;;5077506;28;20056;-88
2022/12/21 07:48:40;;;;;;;100.10;31.97;;;7.50;99.90;;;;;;5060704;28;20040;-81
2022/12/21 07:51:07;;;;;;;96.80;32.43;;;7.50;99.90;;;;;;5075356;28;20529;-80
2022/12/21 07:53:33;;;;;;;109.57;32.97;;;7.50;99.90;;;;;;5067536;28;20063;-80
2022/12/21 07:56:01;;;;;;;100.90;32.10;;;7.50;99.90;;;;;;5072558;28;20055;-84
2022/12/21 07:58:27;;;;;;;113.97;31.83;;;7.50;99.90;;;;;;5067014;28;20033;-81
2022/12/21 08:00:53;;;;;;;140.00;36.23;;;7.50;99.90;;;;;;5047370;28;20037;-82
2022/12/21 08:03:19;;;;;;;104.73;30.90;;;7.50;99.90;;;;;;5067845;28;20131;-83
2022/12/21 08:05:44;;;;;;;84.40;28.80;;;7.50;99.90;;;;;;5069508;28;20210;-82
2022/12/21 08:08:10;;;;;;;86.87;29.00;;;7.50;99.90;;;;;;5067721;28;20029;-82
2022/12/21 08:10:36;;;;;;;94.43;30.50;;;7.50;99.90;;;;;;5067261;28;20040;-81
2022/12/21 08:13:01;;;;;;;142.53;37.33;;;7.50;99.90;;;;;;5064948;28;20117;-82
2022/12/21 08:15:27;;;;;;;153.10;36.17;;;7.50;99.90;;;;;;5064924;28;20044;-82
2022/12/21 08:17:53;;;;;;;163.40;36.57;;;7.50;99.90;;;;;;5068154;28;20052;-82
2022/12/21 08:20:19;;;;;;;132.47;37.63;;;7.50;99.90;;;;;;5067172;28;20049;-89
2022/12/21 08:22:45;;;;;;;105.33;33.03;;;7.50;99.90;;;;;;5075312;28;20096;-91
2022/12/21 08:25:11;;;;;;;189.60;42.70;;;7.50;99.90;;;;;;5075031;28;20056;-88
2022/12/21 08:27:37;;;;;;;111.87;34.93;;;7.50;99.90;;;;;;5070795;28;20048;-82
2022/12/21 08:30:04;;;;;;;149.37;38.83;;;7.50;99.90;;;;;;5065739;28;20519;-83
2022/12/21 08:32:30;;;;;;;123.10;35.60;;;7.50;99.90;;;;;;5064515;28;20040;-82
2022/12/21 08:34:55;;;;;;;151.87;39.53;;;7.50;99.90;;;;;;5064510;28;20100;-80
2022/12/21 08:37:22;;;;;;;138.10;38.20;;;7.50;99.90;;;;;;5069048;28;20049;-82
2022/12/21 08:39:48;;;;;;;131.90;37.13;;;7.50;99.90;;;;;;5068581;28;20048;-82
2022/12/21 08:42:14;;;;;;;131.33;36.40;;;7.50;99.90;;;;;;5066581;28;20033;-83
2022/12/21 08:44:39;;;;;;;168.37;41.40;;;7.50;99.90;;;;;;5067943;28;20068;-81
2022/12/21 08:47:06;;;;;;;125.63;36.07;;;7.50;99.90;;;;;;5069336;28;20045;-81
2022/12/21 08:49:32;;;;;;;109.00;33.83;;;7.50;99.90;;;;;;5068067;28;20098;-82
2022/12/21 08:51:58;;;;;;;104.80;34.20;;;7.50;99.90;;;;;;5066673;28;20048;-76
2022/12/21 08:54:25;;;;;;;106.40;34.53;;;7.50;99.90;;;;;;5065925;28;20075;-91
2022/12/21 08:56:51;;;;;;;118.83;37.43;;;7.50;99.90;;;;;;5070004;28;20059;-83
2022/12/21 08:59:18;;;;;;;104.67;32.83;;;7.50;99.90;;;;;;5048864;28;20053;-85
2022/12/21 09:01:43;;;;;;;102.60;34.43;;;7.50;99.90;;;;;;5069390;28;20052;-82
2022/12/21 09:04:09;;;;;;;99.33;33.87;;;7.50;99.90;;;;;;5066323;28;20407;-84
2022/12/21 09:06:35;;;;;;;108.13;35.90;;;7.60;99.90;;;;;;5064557;28;20045;-84
2022/12/21 09:09:00;;;;;;;83.37;32.40;;;7.60;99.90;;;;;;5072663;28;20036;-82
2022/12/21 09:11:27;;;;;;;85.27;31.13;;;7.60;99.90;;;;;;5065813;28;20076;-84
2022/12/21 09:13:53;;;;;;;85.87;33.03;;;7.60;99.90;;;;;;5060056;28;20104;-83
2022/12/21 09:16:21;;;;;;;109.07;36.67;;;7.70;99.90;;;;;;5062277;28;20064;-82
2022/12/21 09:18:47;;;;;;;99.00;33.83;;;7.70;99.90;;;;;;5059927;28;20045;-82
2022/12/21 09:21:15;;;;;;;96.00;34.30;;;7.70;99.90;;;;;;5070969;28;20052;-82
2022/12/21 09:23:41;;;;;;;114.73;36.13;;;7.70;99.90;;;;;;5077045;28;20044;-82
2022/12/21 09:26:08;;;;;;;86.67;32.57;;;7.80;99.90;;;;;;5076394;28;20037;-83
2022/12/21 09:28:34;;;;;;;111.13;38.50;;;7.80;99.90;;;;;;5066295;28;20568;-82
2022/12/21 09:31:12;;;;;;;100.77;36.00;;;7.90;99.90;;;;;;5065863;28;20103;-82
2022/12/21 09:33:38;;;;;;;92.03;34.10;;;7.90;99.90;;;;;;5064072;28;20048;-82
2022/12/21 09:36:05;;;;;;;98.43;33.97;;;7.90;99.90;;;;;;5070090;28;20048;-82
2022/12/21 09:38:31;;;;;;;96.83;34.00;;;7.90;99.90;;;;;;5053012;28;20113;-82
2022/12/21 09:41:01;;;;;;;99.03;35.37;;;7.90;99.90;;;;;;5056186;28;21033;-82
2022/12/21 09:44:02;;;;;;;94.63;32.17;;;8.00;99.90;;;;;;5056895;28;20613;-79
2022/12/21 09:46:29;;;;;;;108.80;35.83;;;8.00;99.90;;;;;;5045599;28;20060;-84
2022/12/21 09:48:59;;;;;;;95.27;34.90;;;8.00;99.90;;;;;;5057634;28;20067;-81
2022/12/21 09:51:26;;;;;;;86.53;31.67;;;8.00;99.90;;;;;;5054856;28;20167;-82
2022/12/21 09:54:15;;;;;;;82.23;32.53;;;8.00;99.90;;;;;;5057446;28;20116;-83
2022/12/21 09:56:45;;;;;;;99.70;34.47;;;8.10;99.90;;;;;;5051131;28;20498;-82
2022/12/21 09:59:13;;;;;;;91.00;34.63;;;8.10;99.90;;;;;;5056862;28;20037;-82
2022/12/21 10:02:01;;;;;;;86.50;32.70;;;8.10;99.90;;;;;;5063141;28;20052;-82
2022/12/21 10:04:40;;;;;;;76.97;31.57;;;8.00;99.90;;;;;;5063821;28;20052;-84
2022/12/21 10:07:41;;;;;;;74.73;28.97;;;8.00;99.90;;;;;;5065001;28;20044;-84
2022/12/21 10:10:37;;;;;;;68.60;28.17;;;8.00;99.90;;;;;;5061114;28;20049;-87
2022/12/21 10:13:16;;;;;;;70.27;28.93;;;8.00;99.90;;;;;;5065595;28;20045;-87
2022/12/21 10:16:19;;;;;;;87.83;31.30;;;8.00;99.90;;;;;;5071045;28;20049;-85
2022/12/21 10:19:09;;;;;;;79.23;30.83;;;8.00;99.90;;;;;;5068573;28;20447;-81
2022/12/21 10:22:13;;;;;;;78.20;31.07;;;8.00;99.90;;;;;;5073964;28;20048;-82
2022/12/21 10:24:49;;;;;;;75.27;29.37;;;8.00;99.90;;;;;;5062880;28;20063;-83
2022/12/21 10:27:39;;;;;;;85.30;33.63;;;8.00;99.90;;;;;;5067442;28;20044;-86
2022/12/21 10:30:06;;;;;;;87.77;31.03;;;7.90;99.90;;;;;;5064903;28;20113;-84
2022/12/21 10:32:34;;;;;;;90.07;33.00;;;8.00;99.90;;;;;;5052345;28;20082;-84
2022/12/21 10:35:24;;;;;;;80.23;32.77;;;8.00;99.90;;;;;;5075709;28;20071;-85
2022/12/21 10:37:53;;;;;;;80.43;32.23;;;8.00;99.90;;;;;;5059211;28;20846;-86
2022/12/21 10:40:26;;;;;;;80.53;32.30;;;8.00;99.90;;;;;;5065737;28;20044;-86
2022/12/21 10:42:53;;;;;;;77.83;31.47;;;8.00;99.90;;;;;;5060196;28;20090;-85
2022/12/21 10:45:22;;;;;;;70.10;29.37;;;8.00;99.90;;;;;;5073854;28;20473;-86
2022/12/21 10:47:48;;;;;;;67.47;27.63;;;8.10;99.90;;;;;;5075485;28;20074;-86
2022/12/21 10:50:27;;;;;;;52.83;24.23;;;8.10;99.90;;;;;;5062607;28;20060;-86
2022/12/21 10:52:55;;;;;;;53.67;22.83;;;8.10;99.90;;;;;;5065015;28;20061;-84
2022/12/21 10:55:30;;;;;;;51.27;23.13;;;8.10;99.90;;;;;;5066652;28;20589;-85
2022/12/21 10:58:10;;;;;;;58.43;23.83;;;8.10;99.90;;;;;;5059881;28;20049;-83
2022/12/21 11:00:39;;;;;;;54.93;24.67;;;8.20;99.90;;;;;;5062125;28;20043;-84
2022/12/21 11:03:23;;;;;;;57.13;25.47;;;8.20;99.90;;;;;;5078615;28;20127;-85
2022/12/21 11:05:49;;;;;;;59.10;24.40;;;8.20;99.90;;;;;;5065403;28;20056;-84
2022/12/21 11:08:28;;;;;;;57.03;23.87;;;8.20;99.90;;;;;;5071020;28;20052;-85
2022/12/21 11:10:58;;;;;;;61.60;25.00;;;8.20;99.90;;;;;;5078995;28;20572;-84
2022/12/21 11:13:26;;;;;;;57.53;24.83;;;8.20;99.90;;;;;;5078943;28;20088;-87
2022/12/21 11:16:09;;;;;;;62.60;25.60;;;8.20;99.90;;;;;;5078809;28;20132;-85
2022/12/21 11:18:37;;;;;;;63.30;25.83;;;8.30;99.90;;;;;;5080752;28;20036;-85
2022/12/21 11:21:09;;;;;;;59.20;25.17;;;8.30;99.90;;;;;;5075466;28;20049;-85
2022/12/21 11:23:35;;;;;;;;;;;8.40;99.90;;;;;;5076749;28;20091;-84
2022/12/21 11:26:01;;;;;;;62.53;26.10;;;8.30;99.90;;;;;;5078766;28;19924;-86
2022/12/21 11:28:26;;;;;;;63.60;27.10;;;8.30;99.90;;;;;;5078908;28;20104;-85
2022/12/21 11:31:01;;;;;;;68.30;27.27;;;8.40;99.90;;;;;;5079136;28;20099;-85
2022/12/21 11:33:27;;;;;;;60.43;26.07;;;8.40;99.90;;;;;;5073756;28;20125;-84
2022/12/21 11:36:15;;;;;;;64.77;26.77;;;8.40;99.90;;;;;;5071192;28;20056;-85
2022/12/21 11:38:41;;;;;;;69.10;26.47;;;8.40;99.90;;;;;;5065902;28;20037;-84
2022/12/21 11:41:28;;;;;;;61.63;25.93;;;8.40;99.90;;;;;;5078922;28;20040;-85
2022/12/21 11:43:55;;;;;;;61.97;27.87;;;8.50;99.90;;;;;;5077295;28;20044;-86
2022/12/21 11:46:23;;;;;;;68.27;26.67;;;8.50;99.90;;;;;;5077680;28;20033;-85
2022/12/21 11:48:55;;;;;;;60.33;25.80;;;8.60;99.90;;;;;;5070544;28;20037;-85
2022/12/21 11:51:34;;;;;;;61.60;25.40;;;8.60;99.90;;;;;;5072167;28;20036;-85
2022/12/21 11:54:06;;;;;;;71.03;26.83;;;8.70;99.90;;;;;;5067533;28;20052;-86
2022/12/21 11:57:11;;;;;;;57.13;25.10;;;8.70;99.90;;;;;;5076632;28;20052;-86
2022/12/21 11:59:55;;;;;;;55.10;24.03;;;8.70;99.90;;;;;;5071082;28;20139;-82
2022/12/21 12:02:58;;;;;;;54.93;23.50;;;8.70;99.90;;;;;;5077051;28;20048;-82
2022/12/21 12:05:24;;;;;;;54.23;23.50;;;8.70;99.90;;;;;;5077198;28;20048;-85
2022/12/21 12:07:56;;;;;;;57.23;25.63;;;8.70;99.90;;;;;;5077281;28;20075;-84
2022/12/21 12:10:37;;;;;;;54.92;24.45;;;8.70;99.90;;;;;;5072161;28;20054;-84
2022/12/21 12:13:12;;;;;;;59.47;24.15;;;8.60;99.90;;;;;;5066419;28;20056;-85
2022/12/21 12:15:45;;;;;;;57.47;23.57;;;8.60;99.90;;;;;;5073609;28;20048;-84
2022/12/21 12:18:23;;;;;;;64.07;26.90;;;8.70;99.90;;;;;;5072239;28;20048;-84
2022/12/21 12:21:11;;;;;;;66.17;27.97;;;8.70;99.90;;;;;;5082780;28;20113;-84
2022/12/21 12:23:44;;;;;;;62.07;26.83;;;8.70;99.90;;;;;;5066014;28;20315;-84
2022/12/21 12:26:26;;;;;;;64.13;27.97;;;8.70;99.90;;;;;;5088367;28;20036;-83
2022/12/21 12:29:08;;;;;;;63.10;26.47;;;8.80;99.90;;;;;;5078625;28;20080;-84
2022/12/21 12:31:39;;;;;;;63.33;25.25;;;8.80;99.90;;;;;;5089707;28;20052;-84
2022/12/21 12:34:24;;;;;;;58.75;24.08;;;8.80;99.90;;;;;;5090262;28;20079;-85
2022/12/21 12:37:18;;;;;;;57.47;25.00;;;8.80;99.90;;;;;;5091595;28;20037;-84
2022/12/21 12:40:15;;;;;;;54.53;23.40;;;8.80;99.90;;;;;;5091749;28;20036;-84
2022/12/21 12:42:54;;;;;;;58.47;24.33;;;8.80;99.90;;;;;;5087511;28;20029;-85
2022/12/21 12:45:37;;;;;;;56.47;24.70;;;8.80;99.90;;;;;;5092147;28;20060;-85
2022/12/21 12:48:03;;;;;;;64.90;26.33;;;8.80;99.90;;;;;;5091294;28;20029;-85
2022/12/21 12:50:31;;;;;;;64.40;26.30;;;8.70;99.90;;;;;;5085461;28;20048;-85
2022/12/21 12:53:01;;;;;;;62.00;26.43;;;8.70;99.90;;;;;;5078436;28;20056;-83
2022/12/21 12:56:05;;;;;;;61.20;26.63;;;8.60;99.90;;;;;;5071113;28;20040;-85
2022/12/21 12:58:56;;;;;;;64.43;27.30;;;8.60;99.90;;;;;;5076423;28;20040;-83
2022/12/21 13:01:44;;;;;;;59.37;26.57;;;8.50;99.90;;;;;;5064255;28;20053;-84
2022/12/21 13:04:19;;;;;;;60.07;27.03;;;8.50;99.90;;;;;;5063843;28;20477;-83
2022/12/21 13:06:56;;;;;;;65.90;29.67;;;8.50;99.90;;;;;;5077146;28;20116;-83
2022/12/21 13:09:25;;;;;;;64.47;27.90;;;8.50;99.90;;;;;;5075928;28;20080;-83
2022/12/21 13:12:20;;;;;;;67.07;27.37;;;8.50;99.90;;;;;;5075381;28;20074;-83
2022/12/21 13:15:11;;;;;;;65.03;28.10;;;8.50;99.90;;;;;;5071485;28;20103;-83
2022/12/21 13:18:03;;;;;;;63.72;27.85;;;8.50;99.90;;;;;;5071104;28;20056;-83